sensor_id;sensor_type;location;lat;lon;timestamp;P1;durP1;ratioP1;P2;durP2;ratioP2
63342;SDS011;49465;57.664;39.686;2022-08-21T00:01:42;27.85;;;18.48;;
63342;SDS011;49465;57.664;39.686;2022-08-21T00:04:16;27.60;;;18.63;;
63342;SDS011;49465;57.664;39.686;2022-08-21T00:06:50;31.33;;;19.42;;
63342;SDS011;49465;57.664;39.686;2022-08-21T00:09:33;28.08;;;19.38;;
63342;SDS011;49465;57.664;39.686;2022-08-21T00:12:05;32.20;;;18.42;;
63342;SDS011;49465;57.664;39.686;2022-08-21T00:15:02;32.60;;;20.25;;
63342;SDS011;49465;57.664;39.686;2022-08-21T00:17:52;29.02;;;19.40;;
63342;SDS011;49465;57.664;39.686;2022-08-21T00:20:27;30.85;;;19.60;;
63342;SDS011;49465;57.664;39.686;2022-08-21T00:23:01;30.75;;;19.75;;
63342;SDS011;49465;57.664;39.686;2022-08-21T00:25:31;29.30;;;18.67;;
63342;SDS011;49465;57.664;39.686;2022-08-21T00:27:57;27.50;;;18.52;;
63342;SDS011;49465;57.664;39.686;2022-08-21T00:30:24;30.80;;;20.15;;
63342;SDS011;49465;57.664;39.686;2022-08-21T00:32:52;30.88;;;19.27;;
63342;SDS011;49465;57.664;39.686;2022-08-21T00:35:21;29.15;;;19.20;;
63342;SDS011;49465;57.664;39.686;2022-08-21T00:38:03;31.52;;;19.65;;
63342;SDS011;49465;57.664;39.686;2022-08-21T00:40:39;31.98;;;19.40;;
63342;SDS011;49465;57.664;39.686;2022-08-21T00:43:27;29.00;;;18.98;;
63342;SDS011;49465;57.664;39.686;2022-08-21T00:46:06;28.15;;;19.63;;
63342;SDS011;49465;57.664;39.686;2022-08-21T00:48:33;32.70;;;19.42;;
63342;SDS011;49465;57.664;39.686;2022-08-21T00:51:07;29.40;;;19.33;;
63342;SDS011;49465;57.664;39.686;2022-08-21T00:53:51;28.33;;;19.75;;
63342;SDS011;49465;57.664;39.686;2022-08-21T00:56:22;31.73;;;19.67;;
63342;SDS011;49465;57.664;39.686;2022-08-21T00:58:54;32.08;;;19.90;;
63342;SDS011;49465;57.664;39.686;2022-08-21T01:01:43;28.45;;;19.48;;
63342;SDS011;49465;57.664;39.686;2022-08-21T01:04:20;28.63;;;19.25;;
63342;SDS011;49465;57.664;39.686;2022-08-21T01:06:53;31.65;;;19.58;;
63342;SDS011;49465;57.664;39.686;2022-08-21T01:09:47;27.70;;;19.38;;
63342;SDS011;49465;57.664;39.686;2022-08-21T01:12:26;28.58;;;19.92;;
63342;SDS011;49465;57.664;39.686;2022-08-21T01:14:53;34.65;;;19.02;;
63342;SDS011;49465;57.664;39.686;2022-08-21T01:17:20;30.83;;;19.00;;
63342;SDS011;49465;57.664;39.686;2022-08-21T01:19:47;30.45;;;20.38;;
63342;SDS011;49465;57.664;39.686;2022-08-21T01:22:18;30.45;;;20.25;;
63342;SDS011;49465;57.664;39.686;2022-08-21T01:24:44;35.88;;;21.60;;
63342;SDS011;49465;57.664;39.686;2022-08-21T01:27:15;33.75;;;20.83;;
63342;SDS011;49465;57.664;39.686;2022-08-21T01:29:46;33.58;;;21.23;;
63342;SDS011;49465;57.664;39.686;2022-08-21T01:32:22;34.65;;;21.95;;
63342;SDS011;49465;57.664;39.686;2022-08-21T01:35:00;33.53;;;21.65;;
63342;SDS011;49465;57.664;39.686;2022-08-21T01:37:28;34.55;;;21.73;;
63342;SDS011;49465;57.664;39.686;2022-08-21T01:39:54;30.83;;;21.52;;
63342;SDS011;49465;57.664;39.686;2022-08-21T01:42:32;36.17;;;21.00;;
63342;SDS011;49465;57.664;39.686;2022-08-21T01:44:58;34.10;;;21.42;;
63342;SDS011;49465;57.664;39.686;2022-08-21T01:47:40;35.65;;;21.75;;
63342;SDS011;49465;57.664;39.686;2022-08-21T01:50:09;33.38;;;21.50;;
63342;SDS011;49465;57.664;39.686;2022-08-21T01:52:43;34.63;;;21.45;;
63342;SDS011;49465;57.664;39.686;2022-08-21T01:55:30;32.60;;;21.85;;
63342;SDS011;49465;57.664;39.686;2022-08-21T01:58:01;33.05;;;21.17;;
63342;SDS011;49465;57.664;39.686;2022-08-21T02:00:41;31.90;;;20.52;;
63342;SDS011;49465;57.664;39.686;2022-08-21T02:03:11;31.38;;;21.27;;
63342;SDS011;49465;57.664;39.686;2022-08-21T02:05:48;31.67;;;21.50;;
63342;SDS011;49465;57.664;39.686;2022-08-21T02:08:27;33.10;;;21.67;;
63342;SDS011;49465;57.664;39.686;2022-08-21T02:10:59;31.65;;;21.52;;
63342;SDS011;49465;57.664;39.686;2022-08-21T02:13:44;30.25;;;20.58;;
63342;SDS011;49465;57.664;39.686;2022-08-21T02:16:15;31.88;;;22.25;;
63342;SDS011;49465;57.664;39.686;2022-08-21T02:18:54;33.35;;;22.33;;
63342;SDS011;49465;57.664;39.686;2022-08-21T02:21:29;32.80;;;21.55;;
63342;SDS011;49465;57.664;39.686;2022-08-21T02:24:08;40.08;;;21.75;;
63342;SDS011;49465;57.664;39.686;2022-08-21T02:26:46;34.20;;;21.85;;
63342;SDS011;49465;57.664;39.686;2022-08-21T02:29:24;32.97;;;22.15;;
63342;SDS011;49465;57.664;39.686;2022-08-21T02:32:02;35.20;;;22.25;;
63342;SDS011;49465;57.664;39.686;2022-08-21T02:34:33;32.42;;;21.35;;
63342;SDS011;49465;57.664;39.686;2022-08-21T02:37:13;29.30;;;20.92;;
63342;SDS011;49465;57.664;39.686;2022-08-21T02:40:03;35.78;;;21.88;;
63342;SDS011;49465;57.664;39.686;2022-08-21T02:42:51;32.25;;;21.95;;
63342;SDS011;49465;57.664;39.686;2022-08-21T02:45:22;31.42;;;21.52;;
63342;SDS011;49465;57.664;39.686;2022-08-21T02:47:52;34.92;;;22.35;;
63342;SDS011;49465;57.664;39.686;2022-08-21T02:53:21;32.83;;;22.20;;
63342;SDS011;49465;57.664;39.686;2022-08-21T02:55:59;35.83;;;22.92;;
63342;SDS011;49465;57.664;39.686;2022-08-21T02:58:29;33.72;;;22.50;;
63342;SDS011;49465;57.664;39.686;2022-08-21T03:01:05;35.55;;;23.73;;
63342;SDS011;49465;57.664;39.686;2022-08-21T03:03:42;34.42;;;23.80;;
63342;SDS011;49465;57.664;39.686;2022-08-21T03:06:23;33.58;;;23.00;;
63342;SDS011;49465;57.664;39.686;2022-08-21T03:08:55;35.70;;;25.33;;
63342;SDS011;49465;57.664;39.686;2022-08-21T03:11:24;41.33;;;25.85;;
63342;SDS011;49465;57.664;39.686;2022-08-21T03:13:51;38.95;;;26.33;;
63342;SDS011;49465;57.664;39.686;2022-08-21T03:16:33;39.88;;;26.27;;
63342;SDS011;49465;57.664;39.686;2022-08-21T03:19:02;44.58;;;27.35;;
63342;SDS011;49465;57.664;39.686;2022-08-21T03:21:32;45.30;;;28.52;;
63342;SDS011;49465;57.664;39.686;2022-08-21T03:24:12;39.75;;;26.52;;
63342;SDS011;49465;57.664;39.686;2022-08-21T03:26:39;37.22;;;26.48;;
63342;SDS011;49465;57.664;39.686;2022-08-21T03:29:14;43.60;;;27.38;;
63342;SDS011;49465;57.664;39.686;2022-08-21T03:31:53;43.20;;;27.70;;
63342;SDS011;49465;57.664;39.686;2022-08-21T03:34:43;40.00;;;26.88;;
63342;SDS011;49465;57.664;39.686;2022-08-21T03:37:17;37.20;;;26.60;;
63342;SDS011;49465;57.664;39.686;2022-08-21T03:40:04;40.80;;;27.45;;
63342;SDS011;49465;57.664;39.686;2022-08-21T03:42:32;43.85;;;28.38;;
63342;SDS011;49465;57.664;39.686;2022-08-21T03:45:05;41.20;;;28.48;;
63342;SDS011;49465;57.664;39.686;2022-08-21T03:48:02;41.20;;;27.92;;
63342;SDS011;49465;57.664;39.686;2022-08-21T03:50:41;44.08;;;28.15;;
63342;SDS011;49465;57.664;39.686;2022-08-21T03:53:28;43.55;;;26.52;;
63342;SDS011;49465;57.664;39.686;2022-08-21T03:56:06;38.15;;;25.58;;
63342;SDS011;49465;57.664;39.686;2022-08-21T03:58:38;33.50;;;23.77;;
63342;SDS011;49465;57.664;39.686;2022-08-21T04:01:33;35.58;;;24.13;;
63342;SDS011;49465;57.664;39.686;2022-08-21T04:04:05;37.80;;;23.98;;
63342;SDS011;49465;57.664;39.686;2022-08-21T04:06:49;36.42;;;25.05;;
63342;SDS011;49465;57.664;39.686;2022-08-21T04:09:21;34.08;;;23.95;;
63342;SDS011;49465;57.664;39.686;2022-08-21T04:11:48;36.17;;;23.77;;
63342;SDS011;49465;57.664;39.686;2022-08-21T04:14:20;37.70;;;24.17;;
63342;SDS011;49465;57.664;39.686;2022-08-21T04:16:58;37.55;;;24.30;;
63342;SDS011;49465;57.664;39.686;2022-08-21T04:19:35;38.13;;;24.40;;
63342;SDS011;49465;57.664;39.686;2022-08-21T04:22:04;34.97;;;23.45;;
63342;SDS011;49465;57.664;39.686;2022-08-21T04:24:46;36.03;;;22.98;;
63342;SDS011;49465;57.664;39.686;2022-08-21T04:27:12;34.90;;;22.83;;
63342;SDS011;49465;57.664;39.686;2022-08-21T04:29:45;32.53;;;21.88;;
63342;SDS011;49465;57.664;39.686;2022-08-21T04:32:25;35.97;;;23.48;;
63342;SDS011;49465;57.664;39.686;2022-08-21T04:35:08;33.58;;;21.95;;
63342;SDS011;49465;57.664;39.686;2022-08-21T04:37:58;33.28;;;22.00;;
63342;SDS011;49465;57.664;39.686;2022-08-21T04:40:36;32.08;;;21.42;;
63342;SDS011;49465;57.664;39.686;2022-08-21T04:43:12;33.67;;;21.50;;
63342;SDS011;49465;57.664;39.686;2022-08-21T04:45:48;32.42;;;20.65;;
63342;SDS011;49465;57.664;39.686;2022-08-21T04:48:16;33.63;;;20.10;;
63342;SDS011;49465;57.664;39.686;2022-08-21T04:51:10;30.92;;;19.40;;
63342;SDS011;49465;57.664;39.686;2022-08-21T04:53:43;28.90;;;19.00;;
63342;SDS011;49465;57.664;39.686;2022-08-21T04:56:38;29.13;;;18.98;;
63342;SDS011;49465;57.664;39.686;2022-08-21T04:59:35;29.20;;;18.48;;
63342;SDS011;49465;57.664;39.686;2022-08-21T05:02:19;32.35;;;19.63;;
63342;SDS011;49465;57.664;39.686;2022-08-21T05:05:03;27.60;;;19.13;;
63342;SDS011;49465;57.664;39.686;2022-08-21T05:07:42;30.27;;;18.50;;
63342;SDS011;49465;57.664;39.686;2022-08-21T05:10:12;26.58;;;17.17;;
63342;SDS011;49465;57.664;39.686;2022-08-21T05:12:40;26.85;;;17.77;;
63342;SDS011;49465;57.664;39.686;2022-08-21T05:15:16;28.33;;;17.80;;
63342;SDS011;49465;57.664;39.686;2022-08-21T05:17:45;26.15;;;17.05;;
63342;SDS011;49465;57.664;39.686;2022-08-21T05:20:22;25.98;;;17.15;;
63342;SDS011;49465;57.664;39.686;2022-08-21T05:22:48;25.13;;;16.45;;
63342;SDS011;49465;57.664;39.686;2022-08-21T05:25:15;24.30;;;16.77;;
63342;SDS011;49465;57.664;39.686;2022-08-21T05:27:42;26.65;;;16.35;;
63342;SDS011;49465;57.664;39.686;2022-08-21T05:30:15;27.23;;;17.48;;
63342;SDS011;49465;57.664;39.686;2022-08-21T05:32:58;26.02;;;16.27;;
63342;SDS011;49465;57.664;39.686;2022-08-21T05:35:31;25.45;;;15.98;;
63342;SDS011;49465;57.664;39.686;2022-08-21T05:37:58;23.60;;;16.27;;
63342;SDS011;49465;57.664;39.686;2022-08-21T05:40:30;21.63;;;15.63;;
63342;SDS011;49465;57.664;39.686;2022-08-21T05:42:59;27.85;;;16.08;;
63342;SDS011;49465;57.664;39.686;2022-08-21T05:45:30;25.92;;;15.88;;
63342;SDS011;49465;57.664;39.686;2022-08-21T05:48:04;22.83;;;15.32;;
63342;SDS011;49465;57.664;39.686;2022-08-21T05:50:49;23.08;;;15.27;;
63342;SDS011;49465;57.664;39.686;2022-08-21T05:53:20;24.13;;;14.90;;
63342;SDS011;49465;57.664;39.686;2022-08-21T05:55:47;22.50;;;14.55;;
63342;SDS011;49465;57.664;39.686;2022-08-21T05:58:15;22.50;;;14.18;;
63342;SDS011;49465;57.664;39.686;2022-08-21T06:00:44;21.02;;;13.60;;
63342;SDS011;49465;57.664;39.686;2022-08-21T06:03:13;19.17;;;12.77;;
63342;SDS011;49465;57.664;39.686;2022-08-21T06:05:48;18.30;;;13.45;;
63342;SDS011;49465;57.664;39.686;2022-08-21T06:08:22;25.00;;;13.60;;
63342;SDS011;49465;57.664;39.686;2022-08-21T06:11:01;20.33;;;11.98;;
63342;SDS011;49465;57.664;39.686;2022-08-21T06:13:59;18.83;;;11.07;;
63342;SDS011;49465;57.664;39.686;2022-08-21T06:16:35;19.80;;;11.45;;
63342;SDS011;49465;57.664;39.686;2022-08-21T06:19:10;17.30;;;11.02;;
63342;SDS011;49465;57.664;39.686;2022-08-21T06:21:40;19.95;;;11.07;;
63342;SDS011;49465;57.664;39.686;2022-08-21T06:24:19;16.67;;;11.07;;
63342;SDS011;49465;57.664;39.686;2022-08-21T06:27:13;19.20;;;10.82;;
63342;SDS011;49465;57.664;39.686;2022-08-21T06:29:40;18.85;;;10.05;;
63342;SDS011;49465;57.664;39.686;2022-08-21T06:32:15;20.58;;;10.40;;
63342;SDS011;49465;57.664;39.686;2022-08-21T06:34:42;14.07;;;9.70;;
63342;SDS011;49465;57.664;39.686;2022-08-21T06:37:12;15.40;;;9.85;;
63342;SDS011;49465;57.664;39.686;2022-08-21T06:39:38;16.27;;;9.75;;
63342;SDS011;49465;57.664;39.686;2022-08-21T06:42:24;20.42;;;10.13;;
63342;SDS011;49465;57.664;39.686;2022-08-21T06:44:58;21.50;;;10.02;;
63342;SDS011;49465;57.664;39.686;2022-08-21T06:47:30;16.00;;;9.05;;
63342;SDS011;49465;57.664;39.686;2022-08-21T06:50:10;19.17;;;9.52;;
63342;SDS011;49465;57.664;39.686;2022-08-21T06:52:57;15.30;;;9.30;;
63342;SDS011;49465;57.664;39.686;2022-08-21T06:55:48;18.95;;;9.63;;
63342;SDS011;49465;57.664;39.686;2022-08-21T06:58:26;20.67;;;9.48;;
63342;SDS011;49465;57.664;39.686;2022-08-21T07:01:02;16.23;;;9.73;;
63342;SDS011;49465;57.664;39.686;2022-08-21T07:03:41;12.27;;;7.68;;
63342;SDS011;49465;57.664;39.686;2022-08-21T07:06:20;13.23;;;7.50;;
63342;SDS011;49465;57.664;39.686;2022-08-21T07:08:55;17.75;;;8.20;;
63342;SDS011;49465;57.664;39.686;2022-08-21T07:11:29;15.30;;;8.02;;
63342;SDS011;49465;57.664;39.686;2022-08-21T07:14:00;17.45;;;7.80;;
63342;SDS011;49465;57.664;39.686;2022-08-21T07:16:31;18.42;;;7.75;;
63342;SDS011;49465;57.664;39.686;2022-08-21T07:19:03;15.20;;;8.32;;
63342;SDS011;49465;57.664;39.686;2022-08-21T07:21:35;13.95;;;8.15;;
63342;SDS011;49465;57.664;39.686;2022-08-21T07:24:08;14.75;;;7.85;;
63342;SDS011;49465;57.664;39.686;2022-08-21T07:26:38;14.77;;;7.25;;
63342;SDS011;49465;57.664;39.686;2022-08-21T07:29:16;14.52;;;6.65;;
63342;SDS011;49465;57.664;39.686;2022-08-21T07:31:54;11.82;;;6.95;;
63342;SDS011;49465;57.664;39.686;2022-08-21T07:34:21;12.77;;;6.68;;
63342;SDS011;49465;57.664;39.686;2022-08-21T07:37:03;15.70;;;6.80;;
63342;SDS011;49465;57.664;39.686;2022-08-21T07:39:33;10.38;;;6.75;;
63342;SDS011;49465;57.664;39.686;2022-08-21T07:41:59;21.45;;;7.10;;
63342;SDS011;49465;57.664;39.686;2022-08-21T07:44:40;13.80;;;6.72;;
63342;SDS011;49465;57.664;39.686;2022-08-21T07:47:07;18.33;;;7.03;;
63342;SDS011;49465;57.664;39.686;2022-08-21T07:49:35;11.48;;;6.68;;
63342;SDS011;49465;57.664;39.686;2022-08-21T07:52:06;13.25;;;6.93;;
63342;SDS011;49465;57.664;39.686;2022-08-21T07:54:42;14.98;;;6.15;;
63342;SDS011;49465;57.664;39.686;2022-08-21T07:57:15;14.25;;;5.78;;
63342;SDS011;49465;57.664;39.686;2022-08-21T07:59:41;13.18;;;6.20;;
63342;SDS011;49465;57.664;39.686;2022-08-21T08:02:20;13.73;;;6.20;;
63342;SDS011;49465;57.664;39.686;2022-08-21T08:05:00;12.50;;;5.88;;
63342;SDS011;49465;57.664;39.686;2022-08-21T08:07:28;9.82;;;5.45;;
63342;SDS011;49465;57.664;39.686;2022-08-21T08:10:05;16.60;;;5.88;;
63342;SDS011;49465;57.664;39.686;2022-08-21T08:12:42;12.35;;;5.50;;
63342;SDS011;49465;57.664;39.686;2022-08-21T08:15:19;21.45;;;5.18;;
63342;SDS011;49465;57.664;39.686;2022-08-21T08:17:55;9.77;;;4.93;;
63342;SDS011;49465;57.664;39.686;2022-08-21T08:20:29;17.52;;;5.30;;
63342;SDS011;49465;57.664;39.686;2022-08-21T08:22:59;8.52;;;4.70;;
63342;SDS011;49465;57.664;39.686;2022-08-21T08:25:28;10.98;;;4.97;;
63342;SDS011;49465;57.664;39.686;2022-08-21T08:27:54;16.73;;;5.07;;
63342;SDS011;49465;57.664;39.686;2022-08-21T08:30:34;8.90;;;4.80;;
63342;SDS011;49465;57.664;39.686;2022-08-21T08:33:15;8.32;;;4.68;;
63342;SDS011;49465;57.664;39.686;2022-08-21T08:35:50;12.85;;;4.70;;
63342;SDS011;49465;57.664;39.686;2022-08-21T08:38:28;8.77;;;4.55;;
63342;SDS011;49465;57.664;39.686;2022-08-21T08:41:13;8.20;;;4.28;;
63342;SDS011;49465;57.664;39.686;2022-08-21T08:44:01;13.48;;;4.75;;
63342;SDS011;49465;57.664;39.686;2022-08-21T08:49:18;12.20;;;5.15;;
63342;SDS011;49465;57.664;39.686;2022-08-21T08:52:29;13.13;;;5.03;;
63342;SDS011;49465;57.664;39.686;2022-08-21T08:55:32;10.88;;;5.57;;
63342;SDS011;49465;57.664;39.686;2022-08-21T08:58:09;10.35;;;5.22;;
63342;SDS011;49465;57.664;39.686;2022-08-21T09:00:58;10.25;;;5.10;;
63342;SDS011;49465;57.664;39.686;2022-08-21T09:03:43;11.23;;;4.60;;
63342;SDS011;49465;57.664;39.686;2022-08-21T09:12:06;7.78;;;3.78;;
63342;SDS011;49465;57.664;39.686;2022-08-21T09:20:37;7.35;;;3.22;;
63342;SDS011;49465;57.664;39.686;2022-08-21T09:27:20;11.13;;;3.40;;
63342;SDS011;49465;57.664;39.686;2022-08-21T09:29:42;13.05;;;4.90;;
63342;SDS011;49465;57.664;39.686;2022-08-21T09:32:34;9.98;;;4.32;;
63342;SDS011;49465;57.664;39.686;2022-08-21T09:35:15;8.57;;;4.10;;
63342;SDS011;49465;57.664;39.686;2022-08-21T09:38:21;11.80;;;3.80;;
63342;SDS011;49465;57.664;39.686;2022-08-21T09:43:58;7.00;;;2.92;;
63342;SDS011;49465;57.664;39.686;2022-08-21T09:46:25;8.80;;;2.90;;
63342;SDS011;49465;57.664;39.686;2022-08-21T09:49:04;4.30;;;2.60;;
63342;SDS011;49465;57.664;39.686;2022-08-21T09:51:58;6.63;;;2.60;;
63342;SDS011;49465;57.664;39.686;2022-08-21T09:54:55;5.82;;;2.63;;
63342;SDS011;49465;57.664;39.686;2022-08-21T09:58:13;8.30;;;3.00;;
63342;SDS011;49465;57.664;39.686;2022-08-21T10:01:04;8.80;;;2.80;;
63342;SDS011;49465;57.664;39.686;2022-08-21T10:03:36;5.85;;;3.05;;
63342;SDS011;49465;57.664;39.686;2022-08-21T10:06:23;6.50;;;2.92;;
63342;SDS011;49465;57.664;39.686;2022-08-21T10:09:04;8.45;;;3.17;;
63342;SDS011;49465;57.664;39.686;2022-08-21T10:12:29;11.85;;;3.33;;
63342;SDS011;49465;57.664;39.686;2022-08-21T10:14:43;4.97;;;3.00;;
63342;SDS011;49465;57.664;39.686;2022-08-21T10:21:15;7.53;;;2.88;;
63342;SDS011;49465;57.664;39.686;2022-08-21T10:24:00;4.93;;;2.67;;
63342;SDS011;49465;57.664;39.686;2022-08-21T10:27:14;11.32;;;2.88;;
63342;SDS011;49465;57.664;39.686;2022-08-21T10:30:46;7.75;;;2.60;;
63342;SDS011;49465;57.664;39.686;2022-08-21T10:35:57;6.13;;;2.15;;
63342;SDS011;49465;57.664;39.686;2022-08-21T10:38:58;9.02;;;2.40;;
63342;SDS011;49465;57.664;39.686;2022-08-21T10:48:00;7.13;;;2.70;;
63342;SDS011;49465;57.664;39.686;2022-08-21T10:50:44;6.85;;;2.85;;
63342;SDS011;49465;57.664;39.686;2022-08-21T10:56:20;6.80;;;2.47;;
63342;SDS011;49465;57.664;39.686;2022-08-21T10:59:41;5.65;;;2.72;;
63342;SDS011;49465;57.664;39.686;2022-08-21T11:05:11;8.02;;;2.30;;
63342;SDS011;49465;57.664;39.686;2022-08-21T11:07:51;7.80;;;2.30;;
63342;SDS011;49465;57.664;39.686;2022-08-21T11:10:31;12.07;;;2.63;;
63342;SDS011;49465;57.664;39.686;2022-08-21T11:13:21;6.55;;;2.75;;
63342;SDS011;49465;57.664;39.686;2022-08-21T11:16:02;9.60;;;2.50;;
63342;SDS011;49465;57.664;39.686;2022-08-21T11:19:02;4.43;;;2.80;;
63342;SDS011;49465;57.664;39.686;2022-08-21T11:22:05;7.18;;;3.75;;
63342;SDS011;49465;57.664;39.686;2022-08-21T11:27:43;7.57;;;4.68;;
63342;SDS011;49465;57.664;39.686;2022-08-21T11:30:14;12.23;;;5.57;;
63342;SDS011;49465;57.664;39.686;2022-08-21T11:38:46;13.52;;;2.90;;
63342;SDS011;49465;57.664;39.686;2022-08-21T11:44:44;6.22;;;2.97;;
63342;SDS011;49465;57.664;39.686;2022-08-21T11:50:23;7.95;;;2.72;;
63342;SDS011;49465;57.664;39.686;2022-08-21T11:59:53;7.65;;;2.83;;
63342;SDS011;49465;57.664;39.686;2022-08-21T12:02:15;5.32;;;2.53;;
63342;SDS011;49465;57.664;39.686;2022-08-21T12:04:58;10.48;;;2.80;;
63342;SDS011;49465;57.664;39.686;2022-08-21T12:07:40;6.70;;;2.50;;
63342;SDS011;49465;57.664;39.686;2022-08-21T12:10:19;8.57;;;2.22;;
63342;SDS011;49465;57.664;39.686;2022-08-21T12:13:06;6.13;;;2.30;;
63342;SDS011;49465;57.664;39.686;2022-08-21T12:18:42;8.52;;;2.63;;
63342;SDS011;49465;57.664;39.686;2022-08-21T12:21:30;4.78;;;2.25;;
63342;SDS011;49465;57.664;39.686;2022-08-21T12:31:58;5.68;;;2.25;;
63342;SDS011;49465;57.664;39.686;2022-08-21T12:34:52;4.35;;;2.10;;
63342;SDS011;49465;57.664;39.686;2022-08-21T12:40:57;9.65;;;2.50;;
63342;SDS011;49465;57.664;39.686;2022-08-21T12:43:12;6.53;;;2.00;;
63342;SDS011;49465;57.664;39.686;2022-08-21T12:45:55;6.40;;;2.22;;
63342;SDS011;49465;57.664;39.686;2022-08-21T12:53:46;4.55;;;2.28;;
63342;SDS011;49465;57.664;39.686;2022-08-21T12:56:22;8.32;;;2.28;;
63342;SDS011;49465;57.664;39.686;2022-08-21T12:59:05;12.35;;;2.40;;
63342;SDS011;49465;57.664;39.686;2022-08-21T13:01:47;7.20;;;2.40;;
63342;SDS011;49465;57.664;39.686;2022-08-21T13:04:44;7.00;;;2.38;;
63342;SDS011;49465;57.664;39.686;2022-08-21T13:07:32;8.25;;;2.47;;
63342;SDS011;49465;57.664;39.686;2022-08-21T13:10:26;5.55;;;2.28;;
63342;SDS011;49465;57.664;39.686;2022-08-21T13:13:16;5.93;;;2.22;;
63342;SDS011;49465;57.664;39.686;2022-08-21T13:16:05;4.28;;;1.92;;
63342;SDS011;49465;57.664;39.686;2022-08-21T13:18:36;3.88;;;2.20;;
63342;SDS011;49465;57.664;39.686;2022-08-21T13:21:32;5.85;;;2.10;;
63342;SDS011;49465;57.664;39.686;2022-08-21T13:24:15;4.57;;;2.10;;
63342;SDS011;49465;57.664;39.686;2022-08-21T13:26:51;8.33;;;2.00;;
63342;SDS011;49465;57.664;39.686;2022-08-21T13:29:39;4.30;;;2.00;;
63342;SDS011;49465;57.664;39.686;2022-08-21T13:32:20;2.58;;;1.80;;
63342;SDS011;49465;57.664;39.686;2022-08-21T13:35:02;2.30;;;1.77;;
63342;SDS011;49465;57.664;39.686;2022-08-21T13:38:19;6.25;;;2.42;;
63342;SDS011;49465;57.664;39.686;2022-08-21T13:40:57;8.95;;;3.10;;
63342;SDS011;49465;57.664;39.686;2022-08-21T13:43:28;5.68;;;2.50;;
63342;SDS011;49465;57.664;39.686;2022-08-21T13:46:07;4.15;;;2.20;;
63342;SDS011;49465;57.664;39.686;2022-08-21T13:48:37;3.38;;;2.10;;
63342;SDS011;49465;57.664;39.686;2022-08-21T13:51:04;5.13;;;2.20;;
63342;SDS011;49465;57.664;39.686;2022-08-21T13:53:36;5.43;;;2.00;;
63342;SDS011;49465;57.664;39.686;2022-08-21T13:56:29;8.00;;;2.15;;
63342;SDS011;49465;57.664;39.686;2022-08-21T13:58:58;5.22;;;2.20;;
63342;SDS011;49465;57.664;39.686;2022-08-21T14:01:36;4.80;;;2.22;;
63342;SDS011;49465;57.664;39.686;2022-08-21T14:04:31;2.95;;;2.03;;
63342;SDS011;49465;57.664;39.686;2022-08-21T14:07:19;4.30;;;2.00;;
63342;SDS011;49465;57.664;39.686;2022-08-21T14:10:12;7.72;;;2.10;;
63342;SDS011;49465;57.664;39.686;2022-08-21T14:12:57;9.52;;;2.40;;
63342;SDS011;49465;57.664;39.686;2022-08-21T14:15:34;6.30;;;2.22;;
63342;SDS011;49465;57.664;39.686;2022-08-21T14:18:13;6.53;;;2.13;;
63342;SDS011;49465;57.664;39.686;2022-08-21T14:20:50;4.45;;;2.13;;
63342;SDS011;49465;57.664;39.686;2022-08-21T14:23:38;5.50;;;2.25;;
63342;SDS011;49465;57.664;39.686;2022-08-21T14:26:06;5.28;;;2.10;;
63342;SDS011;49465;57.664;39.686;2022-08-21T14:28:40;4.28;;;1.90;;
63342;SDS011;49465;57.664;39.686;2022-08-21T14:31:28;4.57;;;2.00;;
63342;SDS011;49465;57.664;39.686;2022-08-21T14:33:57;6.82;;;2.13;;
63342;SDS011;49465;57.664;39.686;2022-08-21T14:36:30;7.75;;;1.83;;
63342;SDS011;49465;57.664;39.686;2022-08-21T14:39:06;7.30;;;2.25;;
63342;SDS011;49465;57.664;39.686;2022-08-21T14:41:36;5.35;;;2.33;;
63342;SDS011;49465;57.664;39.686;2022-08-21T14:44:04;7.10;;;2.55;;
63342;SDS011;49465;57.664;39.686;2022-08-21T14:46:33;11.43;;;3.40;;
63342;SDS011;49465;57.664;39.686;2022-08-21T14:49:00;7.88;;;2.80;;
63342;SDS011;49465;57.664;39.686;2022-08-21T14:51:28;6.53;;;2.70;;
63342;SDS011;49465;57.664;39.686;2022-08-21T14:53:54;9.90;;;2.95;;
63342;SDS011;49465;57.664;39.686;2022-08-21T14:56:20;11.20;;;3.17;;
63342;SDS011;49465;57.664;39.686;2022-08-21T14:58:48;7.55;;;3.45;;
63342;SDS011;49465;57.664;39.686;2022-08-21T15:01:17;7.15;;;3.00;;
63342;SDS011;49465;57.664;39.686;2022-08-21T15:03:45;5.15;;;2.80;;
63342;SDS011;49465;57.664;39.686;2022-08-21T15:06:13;5.47;;;2.90;;
63342;SDS011;49465;57.664;39.686;2022-08-21T15:08:42;10.95;;;2.80;;
63342;SDS011;49465;57.664;39.686;2022-08-21T15:11:11;13.52;;;3.55;;
63342;SDS011;49465;57.664;39.686;2022-08-21T15:13:41;5.22;;;2.70;;
63342;SDS011;49465;57.664;39.686;2022-08-21T15:16:08;6.60;;;2.47;;
63342;SDS011;49465;57.664;39.686;2022-08-21T15:18:36;7.75;;;2.58;;
63342;SDS011;49465;57.664;39.686;2022-08-21T15:21:02;7.75;;;2.53;;
63342;SDS011;49465;57.664;39.686;2022-08-21T15:23:29;7.00;;;2.65;;
63342;SDS011;49465;57.664;39.686;2022-08-21T15:25:55;6.85;;;2.38;;
63342;SDS011;49465;57.664;39.686;2022-08-21T15:28:26;6.75;;;2.60;;
63342;SDS011;49465;57.664;39.686;2022-08-21T15:30:52;6.57;;;2.92;;
63342;SDS011;49465;57.664;39.686;2022-08-21T15:33:22;9.18;;;2.80;;
63342;SDS011;49465;57.664;39.686;2022-08-21T15:35:58;8.75;;;2.60;;
63342;SDS011;49465;57.664;39.686;2022-08-21T15:38:39;11.88;;;2.83;;
63342;SDS011;49465;57.664;39.686;2022-08-21T15:41:16;7.40;;;2.40;;
63342;SDS011;49465;57.664;39.686;2022-08-21T15:43:50;10.90;;;2.78;;
63342;SDS011;49465;57.664;39.686;2022-08-21T15:46:18;6.70;;;2.60;;
63342;SDS011;49465;57.664;39.686;2022-08-21T15:48:45;7.50;;;2.60;;
63342;SDS011;49465;57.664;39.686;2022-08-21T15:51:16;10.32;;;2.60;;
63342;SDS011;49465;57.664;39.686;2022-08-21T15:53:44;6.65;;;2.60;;
63342;SDS011;49465;57.664;39.686;2022-08-21T15:56:17;8.85;;;3.38;;
63342;SDS011;49465;57.664;39.686;2022-08-21T15:58:48;9.27;;;3.38;;
63342;SDS011;49465;57.664;39.686;2022-08-21T16:01:17;7.18;;;3.15;;
63342;SDS011;49465;57.664;39.686;2022-08-21T16:03:45;10.32;;;3.30;;
63342;SDS011;49465;57.664;39.686;2022-08-21T16:06:15;7.47;;;3.00;;
63342;SDS011;49465;57.664;39.686;2022-08-21T16:08:41;6.80;;;2.90;;
63342;SDS011;49465;57.664;39.686;2022-08-21T16:11:12;11.13;;;3.13;;
63342;SDS011;49465;57.664;39.686;2022-08-21T16:13:44;10.73;;;2.97;;
63342;SDS011;49465;57.664;39.686;2022-08-21T16:16:18;9.55;;;2.95;;
63342;SDS011;49465;57.664;39.686;2022-08-21T16:18:47;10.98;;;2.85;;
63342;SDS011;49465;57.664;39.686;2022-08-21T16:21:20;7.82;;;2.80;;
63342;SDS011;49465;57.664;39.686;2022-08-21T16:23:58;9.07;;;3.00;;
63342;SDS011;49465;57.664;39.686;2022-08-21T16:26:29;7.80;;;2.97;;
63342;SDS011;49465;57.664;39.686;2022-08-21T16:29:01;10.23;;;3.20;;
63342;SDS011;49465;57.664;39.686;2022-08-21T16:31:28;10.00;;;3.35;;
63342;SDS011;49465;57.664;39.686;2022-08-21T16:33:56;13.55;;;3.03;;
63342;SDS011;49465;57.664;39.686;2022-08-21T16:36:22;6.88;;;3.05;;
63342;SDS011;49465;57.664;39.686;2022-08-21T16:38:55;10.63;;;2.92;;
63342;SDS011;49465;57.664;39.686;2022-08-21T16:41:30;9.05;;;2.85;;
63342;SDS011;49465;57.664;39.686;2022-08-21T16:44:08;11.23;;;3.70;;